Time;durP1;ratioP1;P1;durP2;ratioP2;P2;SDS_P1;SDS_P2;PMS_P1;PMS_P2;Temp;Humidity;BMP_temperature;BMP_pressure;BME280_temperature;BME280_humidity;BME280_pressure;Samples;Min_cycle;Max_cycle;Signal;HPM_P1;HPM_P2
2022/05/27 00:01:22;;;;;;;14.73;4.85;;;;;;;;;;5042878;28;20056;-86
2022/05/27 00:03:49;;;;;;;14.02;4.30;;;;;;;;;;5045538;28;20517;-86
2022/05/27 00:06:15;;;;;;;15.57;5.07;;;;;;;;;;5051270;28;20069;-86
2022/05/27 00:08:41;;;;;;;13.75;4.25;;;;;;;;;;5051289;28;20466;-86
2022/05/27 00:11:07;;;;;;;12.90;4.53;;;;;;;;;;5050246;28;20045;-86
2022/05/27 00:13:34;;;;;;;14.35;4.82;;;;;;;;;;5066138;28;20052;-86
2022/05/27 00:16:00;;;;;;;14.90;4.80;;;;;;;;;;5062248;28;20059;-86
2022/05/27 00:18:26;;;;;;;15.85;4.88;;;;;;;;;;5050788;28;20470;-86
2022/05/27 00:20:53;;;;;;;13.95;4.53;;;;;;;;;;5054552;28;20041;-86
2022/05/27 00:23:19;;;;;;;10.40;4.10;;;;;;;;;;5050876;28;20409;-86
2022/05/27 00:25:45;;;;;;;16.23;4.38;;;;;;;;;;5052757;28;20037;-86
2022/05/27 00:28:11;;;;;;;14.23;3.72;;;;;;;;;;5050859;28;20489;-87
2022/05/27 00:30:37;;;;;;;11.73;4.05;;;;;;;;;;5044580;28;20474;-86
2022/05/27 00:33:05;;;;;;;16.38;4.55;;;;;;;;;;5042262;28;20128;-87
2022/05/27 00:35:31;;;;;;;13.25;4.45;;;;;;;;;;5050562;28;20084;-87
2022/05/27 00:37:57;;;;;;;11.18;4.35;;;;;;;;;;5052000;28;20072;-87
2022/05/27 00:40:24;;;;;;;14.15;4.50;;;;;;;;;;5029612;28;20099;-87
2022/05/27 00:42:50;;;;;;;15.13;4.35;;;;;;;;;;5059830;28;20068;-87
2022/05/27 00:45:18;;;;;;;15.05;4.40;;;;;;;;;;5070489;28;20131;-86
2022/05/27 00:47:46;;;;;;;13.88;3.72;;;;;;;;;;5053709;28;20072;-87
2022/05/27 00:50:14;;;;;;;16.33;4.00;;;;;;;;;;5050419;28;20833;-86
2022/05/27 00:52:41;;;;;;;11.13;3.63;;;;;;;;;;5051314;28;20124;-86
2022/05/27 00:55:10;;;;;;;16.10;3.83;;;;;;;;;;5050288;28;20045;-86
2022/05/27 00:57:52;;;;;;;13.65;3.67;;;;;;;;;;5034894;28;20053;-86
2022/05/27 01:00:20;;;;;;;15.85;3.88;;;;;;;;;;5051988;28;20048;-86
2022/05/27 01:02:47;;;;;;;10.77;3.70;;;;;;;;;;5040089;28;20040;-86
2022/05/27 01:05:14;;;;;;;11.35;3.42;;;;;;;;;;5050952;28;20049;-87
2022/05/27 01:07:40;;;;;;;14.25;3.55;;;;;;;;;;5052035;28;20060;-86
2022/05/27 01:10:08;;;;;;;10.45;3.63;;;;;;;;;;5050495;28;20127;-87
2022/05/27 01:12:55;;;;;;;19.08;4.13;;;;;;;;;;5050114;28;20488;-87
2022/05/27 01:15:34;;;;;;;12.18;3.45;;;;;;;;;;5049319;28;20052;-86
2022/05/27 01:18:18;;;;;;;15.38;3.70;;;;;;;;;;5029951;28;20061;-87
2022/05/27 01:20:47;;;;;;;16.73;4.05;;;;;;;;;;5043364;28;20044;-86
2022/05/27 01:23:22;;;;;;;14.20;4.05;;;;;;;;;;5049393;28;20073;-86
2022/05/27 01:26:01;;;;;;;10.02;3.53;;;;;;;;;;5062999;28;20057;-86
2022/05/27 01:28:46;;;;;;;9.88;3.00;;;;;;;;;;5049656;28;20060;-86
2022/05/27 01:31:15;;;;;;;13.17;3.67;;;;;;;;;;5039436;28;20505;-86
2022/05/27 01:33:47;;;;;;;8.77;3.38;;;;;;;;;;5043807;28;20454;-87
2022/05/27 01:36:23;;;;;;;7.97;2.90;;;;;;;;;;5057212;28;20045;-86
2022/05/27 01:39:08;;;;;;;10.23;3.25;;;;;;;;;;5058883;28;20063;-87
2022/05/27 01:41:37;;;;;;;11.70;3.50;;;;;;;;;;5066784;28;20040;-86
2022/05/27 01:44:22;;;;;;;10.23;3.55;;;;;;;;;;5050045;28;20045;-86
2022/05/27 01:46:49;;;;;;;9.57;3.53;;;;;;;;;;5025102;28;20477;-86
2022/05/27 01:49:24;;;;;;;8.07;3.10;;;;;;;;;;5050513;28;20060;-86
2022/05/27 01:51:53;;;;;;;10.27;3.57;;;;;;;;;;5050770;28;20090;-86
2022/05/27 01:54:38;;;;;;;10.18;3.08;;;;;;;;;;5065304;28;20044;-86
2022/05/27 01:57:06;;;;;;;7.53;3.45;;;;;;;;;;5056983;28;20506;-86
2022/05/27 01:59:36;;;;;;;11.75;3.40;;;;;;;;;;5049104;28;20040;-86
2022/05/27 02:02:13;;;;;;;14.13;3.63;;;;;;;;;;5029360;28;20041;-86
2022/05/27 02:04:42;;;;;;;11.85;3.13;;;;;;;;;;5047821;28;20044;-86
2022/05/27 02:07:11;;;;;;;10.68;3.80;;;;;;;;;;5050923;28;20751;-86
2022/05/27 02:09:43;;;;;;;11.10;3.47;;;;;;;;;;5054130;28;20118;-86
2022/05/27 02:12:12;;;;;;;11.32;3.35;;;;;;;;;;5048786;28;20513;-86
2022/05/27 02:14:41;;;;;;;8.07;3.45;;;;;;;;;;5049107;28;20049;-86
2022/05/27 02:17:11;;;;;;;9.25;3.35;;;;;;;;;;5048179;28;20102;-86
2022/05/27 02:19:40;;;;;;;11.25;3.40;;;;;;;;;;5044518;28;20045;-86
2022/05/27 02:22:13;;;;;;;11.60;3.85;;;;;;;;;;5047615;28;20045;-86
2022/05/27 02:24:42;;;;;;;12.85;4.00;;;;;;;;;;5041810;28;20486;-86
2022/05/27 02:27:20;;;;;;;13.70;4.47;;;;;;;;;;5047747;28;20058;-86
2022/05/27 02:29:50;;;;;;;10.45;3.63;;;;;;;;;;5047220;28;20179;-86
2022/05/27 02:32:23;;;;;;;11.90;3.30;;;;;;;;;;5029162;28;20175;-85
2022/05/27 02:35:12;;;;;;;13.05;4.30;;;;;;;;;;5044783;28;20092;-86
2022/05/27 02:37:46;;;;;;;10.43;3.55;;;;;;;;;;5045064;28;20063;-86
2022/05/27 02:40:20;;;;;;;12.75;3.88;;;;;;;;;;5067562;28;20064;-86
2022/05/27 02:43:02;;;;;;;14.10;3.40;;;;;;;;;;5068579;28;20055;-86
2022/05/27 02:45:29;;;;;;;12.02;3.92;;;;;;;;;;5058430;28;20110;-86
2022/05/27 02:47:58;;;;;;;15.80;3.85;;;;;;;;;;5040633;28;20049;-86
2022/05/27 02:50:31;;;;;;;12.68;3.70;;;;;;;;;;5049892;28;20061;-86
2022/05/27 02:53:03;;;;;;;9.88;3.55;;;;;;;;;;5048665;28;20083;-86
2022/05/27 02:55:39;;;;;;;9.30;3.35;;;;;;;;;;5070668;28;20173;-86
2022/05/27 02:58:05;;;;;;;11.43;3.30;;;;;;;;;;5072310;28;20052;-86
2022/05/27 03:00:32;;;;;;;9.57;3.17;;;;;;;;;;5054593;28;20124;-86
2022/05/27 03:02:59;;;;;;;14.90;3.38;;;;;;;;;;5051126;28;20083;-86
2022/05/27 03:05:28;;;;;;;9.63;3.20;;;;;;;;;;5033022;28;20045;-86
2022/05/27 03:08:17;;;;;;;11.25;3.60;;;;;;;;;;5050428;28;20037;-86
2022/05/27 03:10:43;;;;;;;10.05;2.90;;;;;;;;;;5034292;28;20056;-86
2022/05/27 03:13:28;;;;;;;9.15;3.65;;;;;;;;;;5035441;28;20053;-86
2022/05/27 03:16:00;;;;;;;12.40;3.58;;;;;;;;;;5051689;28;20045;-86
2022/05/27 03:18:48;;;;;;;11.57;3.70;;;;;;;;;;5057753;28;20048;-86
2022/05/27 03:21:18;;;;;;;13.23;3.28;;;;;;;;;;5068605;28;20037;-86
2022/05/27 03:24:02;;;;;;;15.38;3.60;;;;;;;;;;5060590;28;20048;-86
2022/05/27 03:26:37;;;;;;;12.05;3.63;;;;;;;;;;5070287;28;20048;-86
2022/05/27 03:29:22;;;;;;;10.57;3.65;;;;;;;;;;5053088;28;20041;-86
2022/05/27 03:31:59;;;;;;;12.52;4.20;;;;;;;;;;5053692;28;20055;-86
2022/05/27 03:34:25;;;;;;;16.98;4.18;;;;;;;;;;5074850;28;20045;-86
2022/05/27 03:36:54;;;;;;;10.40;3.92;;;;;;;;;;5032041;28;20045;-86
2022/05/27 03:39:28;;;;;;;14.25;3.67;;;;;;;;;;5046378;28;20033;-86
2022/05/27 03:41:56;;;;;;;15.27;4.75;;;;;;;;;;5071851;28;20430;-86
2022/05/27 03:44:26;;;;;;;9.65;4.25;;;;;;;;;;5072643;28;20401;-86
2022/05/27 03:46:53;;;;;;;13.10;3.50;;;;;;;;;;5072946;28;20044;-86
2022/05/27 03:49:19;;;;;;;14.60;3.75;;;;;;;;;;5042119;28;20059;-86
2022/05/27 03:52:07;;;;;;;10.25;3.65;;;;;;;;;;5065140;28;20124;-86
2022/05/27 03:54:33;;;;;;;15.68;3.53;;;;;;;;;;5073444;28;20084;-86
2022/05/27 03:56:59;;;;;;;12.90;3.72;;;;;;;;;;5051167;28;20052;-86
2022/05/27 03:59:25;;;;;;;12.23;3.83;;;;;;;;;;5051048;28;20124;-86
2022/05/27 04:01:52;;;;;;;12.80;3.67;;;;;;;;;;5051594;28;20041;-86
2022/05/27 04:04:20;;;;;;;11.85;3.53;;;;;;;;;;5046270;28;20051;-86
2022/05/27 04:06:47;;;;;;;12.68;3.50;;;;;;;;;;5051022;28;20094;-86
2022/05/27 04:09:13;;;;;;;11.68;3.70;;;;;;;;;;5059196;28;20048;-86
2022/05/27 04:11:39;;;;;;;12.35;3.83;;;;;;;;;;5071490;28;20036;-86
2022/05/27 04:14:05;;;;;;;12.15;3.58;;;;;;;;;;5053792;28;20076;-86
2022/05/27 04:16:31;;;;;;;12.80;3.60;;;;;;;;;;5034935;28;20049;-86
2022/05/27 04:18:57;;;;;;;13.20;4.20;;;;;;;;;;5039358;28;20068;-86
2022/05/27 04:21:24;;;;;;;12.27;3.53;;;;;;;;;;5047754;28;20048;-86
2022/05/27 04:23:50;;;;;;;17.73;3.72;;;;;;;;;;5056217;28;20041;-86
2022/05/27 04:26:16;;;;;;;13.73;4.00;;;;;;;;;;5054646;28;20047;-86
2022/05/27 04:28:42;;;;;;;14.15;3.97;;;;;;;;;;5065882;28;20036;-86
2022/05/27 04:31:08;;;;;;;13.45;3.97;;;;;;;;;;5052015;28;20041;-86
2022/05/27 04:33:34;;;;;;;9.48;3.92;;;;;;;;;;5040727;28;20072;-86
2022/05/27 04:36:00;;;;;;;10.73;3.80;;;;;;;;;;5032094;28;20049;-86
2022/05/27 04:38:27;;;;;;;12.55;3.70;;;;;;;;;;5043202;28;20052;-86
2022/05/27 04:40:53;;;;;;;10.73;3.60;;;;;;;;;;5068833;28;20071;-86
2022/05/27 04:43:19;;;;;;;16.80;3.80;;;;;;;;;;5052267;28;20486;-86
2022/05/27 04:45:45;;;;;;;10.15;3.30;;;;;;;;;;5051314;28;20118;-86
2022/05/27 04:48:13;;;;;;;9.10;3.70;;;;;;;;;;5047650;28;20048;-86
2022/05/27 04:50:40;;;;;;;11.35;3.50;;;;;;;;;;5037633;28;20400;-86
2022/05/27 04:53:09;;;;;;;11.25;3.60;;;;;;;;;;5049919;28;20099;-86
2022/05/27 04:55:36;;;;;;;10.88;3.55;;;;;;;;;;5062986;28;20048;-86
2022/05/27 04:58:03;;;;;;;12.93;4.10;;;;;;;;;;5045871;28;20052;-86
2022/05/27 05:00:29;;;;;;;15.25;3.92;;;;;;;;;;5049276;28;20076;-86
2022/05/27 05:02:55;;;;;;;13.73;4.35;;;;;;;;;;5051230;28;20497;-86
2022/05/27 05:05:22;;;;;;;14.23;4.18;;;;;;;;;;5051711;28;20576;-85
2022/05/27 05:07:49;;;;;;;11.95;3.75;;;;;;;;;;5039190;28;20038;-86
2022/05/27 05:10:17;;;;;;;11.48;4.03;;;;;;;;;;5061356;28;20063;-86
2022/05/27 05:12:44;;;;;;;12.02;3.65;;;;;;;;;;5070138;28;20072;-86
2022/05/27 05:15:11;;;;;;;16.48;4.05;;;;;;;;;;5053617;28;20045;-86
2022/05/27 05:17:37;;;;;;;12.02;4.10;;;;;;;;;;5052387;28;20055;-86
2022/05/27 05:20:04;;;;;;;11.88;3.72;;;;;;;;;;5049548;28;20049;-85
2022/05/27 05:22:31;;;;;;;15.82;3.95;;;;;;;;;;5038561;28;20053;-86
2022/05/27 05:24:57;;;;;;;16.60;3.80;;;;;;;;;;5039017;28;20049;-86
2022/05/27 05:27:24;;;;;;;13.15;3.88;;;;;;;;;;5040653;28;20049;-86
2022/05/27 05:29:52;;;;;;;10.20;3.60;;;;;;;;;;5049505;28;20044;-86
2022/05/27 05:32:18;;;;;;;9.65;3.22;;;;;;;;;;5051123;28;20102;-86
2022/05/27 05:34:44;;;;;;;14.63;3.55;;;;;;;;;;5050069;28;20134;-86
2022/05/27 05:37:10;;;;;;;14.73;3.75;;;;;;;;;;5040250;28;20044;-86
2022/05/27 05:39:40;;;;;;;14.95;3.83;;;;;;;;;;5054002;28;20444;-86
2022/05/27 05:42:07;;;;;;;14.25;3.92;;;;;;;;;;5068172;28;20059;-86
2022/05/27 05:44:33;;;;;;;14.40;3.63;;;;;;;;;;5034691;28;20076;-86
2022/05/27 05:47:00;;;;;;;13.38;3.60;;;;;;;;;;5037707;28;20437;-86
2022/05/27 05:49:26;;;;;;;10.55;2.97;;;;;;;;;;5069888;28;20044;-85
2022/05/27 05:51:54;;;;;;;12.32;3.40;;;;;;;;;;5043925;28;20539;-86
2022/05/27 05:54:20;;;;;;;13.75;3.58;;;;;;;;;;5053047;28;20063;-86
2022/05/27 05:56:47;;;;;;;13.10;3.60;;;;;;;;;;5067182;28;20528;-86
2022/05/27 05:59:14;;;;;;;14.05;3.80;;;;;;;;;;5054233;28;20049;-85
2022/05/27 06:01:40;;;;;;;12.40;3.60;;;;;;;;;;5049016;28;20056;-86
2022/05/27 06:04:06;;;;;;;12.20;3.47;;;;;;;;;;5050452;28;20091;-85
2022/05/27 06:06:32;;;;;;;12.55;3.38;;;;;;;;;;5048883;28;20076;-85
2022/05/27 06:08:58;;;;;;;12.80;3.35;;;;;;;;;;5048154;28;20107;-85
2022/05/27 06:11:25;;;;;;;16.05;3.78;;;;;;;;;;5032961;28;20052;-85
2022/05/27 06:13:51;;;;;;;10.02;3.60;;;;;;;;;;5050308;28;20056;-85
2022/05/27 06:16:17;;;;;;;11.85;3.75;;;;;;;;;;5067864;28;20053;-84
2022/05/27 06:18:43;;;;;;;13.23;3.33;;;;;;;;;;5066330;28;20055;-85
2022/05/27 06:21:09;;;;;;;13.80;3.30;;;;;;;;;;5056003;28;20371;-85
2022/05/27 06:23:36;;;;;;;11.18;3.95;;;;;;;;;;5049877;28;20512;-85
2022/05/27 06:26:04;;;;;;;12.73;3.65;;;;;;;;;;5049190;28;20041;-85
2022/05/27 06:36:44;;;;;;;17.52;4.03;;;;;;;;;;5048530;28;20553;-85
2022/05/27 06:39:10;;;;;;;13.20;3.38;;;;;;;;;;5047916;28;20060;-85
2022/05/27 06:41:36;;;;;;;13.27;4.05;;;;;;;;;;5048124;28;20045;-86
2022/05/27 06:44:03;;;;;;;13.63;3.75;;;;;;;;;;5048770;28;20049;-85
2022/05/27 06:46:29;;;;;;;11.98;3.92;;;;;;;;;;5045874;28;20476;-85
2022/05/27 06:48:55;;;;;;;12.27;4.03;;;;;;;;;;5052296;28;20505;-85
2022/05/27 06:51:21;;;;;;;11.95;3.75;;;;;;;;;;5061712;28;20103;-85
2022/05/27 06:53:47;;;;;;;12.50;4.30;;;;;;;;;;5036658;28;20052;-82
2022/05/27 06:56:14;;;;;;;11.50;3.80;;;;;;;;;;5048080;28;20073;-89
2022/05/27 06:58:40;;;;;;;12.00;3.90;;;;;;;;;;5042862;28;20103;-82
2022/05/27 07:01:07;;;;;;;10.20;4.05;;;;;;;;;;5041623;28;20062;-82
2022/05/27 07:03:37;;;;;;;11.98;3.58;;;;;;;;;;5039286;28;20057;-82
2022/05/27 07:06:03;;;;;;;17.45;3.63;;;;;;;;;;5044323;28;20128;-82
2022/05/27 07:08:29;;;;;;;12.55;3.92;;;;;;;;;;5031131;28;20379;-82
2022/05/27 07:10:55;;;;;;;11.93;3.58;;;;;;;;;;5023403;28;21882;-82
2022/05/27 07:13:21;;;;;;;13.57;4.10;;;;;;;;;;5022229;28;20095;-81
2022/05/27 07:15:47;;;;;;;15.45;4.20;;;;;;;;;;5036075;28;20045;-81
2022/05/27 07:18:13;;;;;;;14.55;4.35;;;;;;;;;;5022456;28;20445;-82
2022/05/27 07:20:41;;;;;;;15.63;4.40;;;;;;;;;;5038545;28;20041;-81
2022/05/27 07:23:08;;;;;;;13.20;4.10;;;;;;;;;;5044681;28;20175;-81
2022/05/27 07:25:34;;;;;;;13.80;4.07;;;;;;;;;;5029812;28;20041;-82
2022/05/27 07:28:01;;;;;;;14.27;3.85;;;;;;;;;;5027712;28;20069;-83
2022/05/27 07:30:27;;;;;;;13.70;3.35;;;;;;;;;;5027513;28;20121;-82
2022/05/27 07:32:53;;;;;;;15.82;3.92;;;;;;;;;;5044066;28;20136;-82
2022/05/27 07:35:19;;;;;;;13.10;3.80;;;;;;;;;;5046537;28;20041;-81
2022/05/27 07:37:46;;;;;;;12.80;3.63;;;;;;;;;;5075735;28;20107;-82
2022/05/27 07:40:12;;;;;;;12.82;3.55;;;;;;;;;;5043355;28;20473;-82
2022/05/27 07:42:38;;;;;;;16.58;4.00;;;;;;;;;;5059753;28;20413;-81
2022/05/27 07:45:08;;;;;;;15.80;3.90;;;;;;;;;;5071871;28;20052;-82
2022/05/27 07:47:34;;;;;;;9.80;3.47;;;;;;;;;;5016296;28;20053;-83
2022/05/27 07:50:01;;;;;;;11.85;3.50;;;;;;;;;;5043940;28;20052;-84
2022/05/27 07:52:27;;;;;;;11.93;3.70;;;;;;;;;;5046946;28;20048;-86
2022/05/27 07:54:55;;;;;;;13.35;3.55;;;;;;;;;;5051952;28;20041;-84
2022/05/27 07:57:25;;;;;;;15.07;4.10;;;;;;;;;;5051314;28;20446;-83
2022/05/27 07:59:58;;;;;;;14.07;4.00;;;;;;;;;;5051830;28;20045;-85
2022/05/27 08:02:25;;;;;;;10.88;4.00;;;;;;;;;;5050867;28;20484;-87
2022/05/27 08:04:52;;;;;;;13.00;3.63;;;;;;;;;;5050366;28;20045;-85
2022/05/27 08:07:18;;;;;;;15.77;4.78;;;;;;;;;;5034264;28;20052;-81
2022/05/27 08:09:44;;;;;;;12.75;3.80;;;;;;;;;;5035596;28;20037;-84
2022/05/27 08:12:11;;;;;;;17.50;3.55;;;;;;;;;;5038593;28;20464;-82
2022/05/27 08:14:37;;;;;;;13.85;3.80;;;;;;;;;;5052518;28;20128;-82
2022/05/27 08:17:03;;;;;;;16.75;4.25;;;;;;;;;;5042278;28;20037;-81
2022/05/27 08:19:29;;;;;;;14.38;3.88;;;;;;;;;;5047488;28;20044;-82
2022/05/27 08:21:58;;;;;;;15.00;4.22;;;;;;;;;;5052262;28;20044;-87
2022/05/27 08:24:24;;;;;;;12.80;3.78;;;;;;;;;;5050862;28;20098;-81
2022/05/27 08:26:50;;;;;;;10.18;4.00;;;;;;;;;;5058189;28;20425;-82
2022/05/27 08:29:17;;;;;;;15.63;4.15;;;;;;;;;;5040650;28;20045;-82
2022/05/27 08:31:43;;;;;;;15.15;4.88;;;;;;;;;;5032137;28;20046;-82
2022/05/27 08:39:46;;;;;;;14.70;3.83;;;;;;;;;;5034720;28;20182;-82
2022/05/27 08:42:30;;;;;;;13.43;4.13;;;;;;;;;;5045381;28;20864;-81
2022/05/27 08:44:59;;;;;;;16.85;4.05;;;;;;;;;;5033457;28;20139;-81
2022/05/27 08:47:35;;;;;;;13.43;4.35;;;;;;;;;;5049882;28;20041;-82
2022/05/27 08:50:09;;;;;;;13.20;4.30;;;;;;;;;;5047312;28;20509;-81
2022/05/27 08:52:44;;;;;;;14.68;4.13;;;;;;;;;;5050841;28;20045;-81
2022/05/27 09:01:08;;;;;;;15.43;3.85;;;;;;;;;;5032599;28;20053;-81
2022/05/27 09:03:39;;;;;;;15.90;4.30;;;;;;;;;;5035757;28;20045;-81
2022/05/27 09:06:05;;;;;;;17.55;4.50;;;;;;;;;;5054752;28;20080;-84
2022/05/27 09:08:31;;;;;;;16.38;3.95;;;;;;;;;;5032322;28;20087;-90
2022/05/27 09:11:13;;;;;;;12.77;3.70;;;;;;;;;;5048767;28;20401;-92
2022/05/27 09:13:49;;;;;;;12.90;3.85;;;;;;;;;;5045100;28;20048;-82
2022/05/27 09:16:21;;;;;;;13.43;3.97;;;;;;;;;;5049971;28;20049;-82
2022/05/27 09:18:49;;;;;;;11.35;3.50;;;;;;;;;;5038318;28;20053;-82
2022/05/27 09:21:21;;;;;;;14.60;3.83;;;;;;;;;;5029991;28;20052;-80
2022/05/27 09:23:56;;;;;;;13.57;4.38;;;;;;;;;;5036525;28;20053;-82
2022/05/27 09:26:40;;;;;;;16.80;4.20;;;;;;;;;;5049918;28;20106;-82
2022/05/27 09:29:06;;;;;;;11.25;3.85;;;;;;;;;;5040247;28;20114;-83
2022/05/27 09:31:37;;;;;;;14.65;4.38;;;;;;;;;;5038291;28;20132;-82
2022/05/27 09:34:03;;;;;;;13.05;4.35;;;;;;;;;;5047351;28;20049;-82
2022/05/27 09:36:38;;;;;;;13.98;4.10;;;;;;;;;;5043992;28;20045;-82
2022/05/27 09:39:07;;;;;;;13.18;4.05;;;;;;;;;;5030240;28;20519;-85
2022/05/27 09:41:43;;;;;;;13.65;3.70;;;;;;;;;;5031569;28;20111;-82
2022/05/27 09:44:09;;;;;;;;;;;;;;;;;;5040209;28;20512;-82
2022/05/27 09:46:35;;;;;;;10.13;3.92;;;;;;;;;;5049868;28;19976;-81
2022/05/27 09:49:01;;;;;;;17.92;4.30;;;;;;;;;;5038813;28;20104;-88
2022/05/27 09:51:30;;;;;;;12.88;4.18;;;;;;;;;;5045409;28;20053;-82
2022/05/27 09:54:01;;;;;;;12.98;3.63;;;;;;;;;;5040259;28;20077;-82
2022/05/27 09:56:41;;;;;;;14.75;4.18;;;;;;;;;;5030937;28;20037;-82
2022/05/27 09:59:25;;;;;;;15.60;4.13;;;;;;;;;;5036404;28;20124;-82
2022/05/27 10:01:52;;;;;;;17.40;4.13;;;;;;;;;;5049052;28;20084;-82
2022/05/27 10:04:18;;;;;;;12.32;3.67;;;;;;;;;;5032364;28;20121;-81
2022/05/27 10:06:45;;;;;;;17.00;4.18;;;;;;;;;;5032646;28;20057;-81
2022/05/27 10:09:25;;;;;;;15.80;4.03;;;;;;;;;;5029971;28;20493;-83
2022/05/27 10:11:52;;;;;;;19.55;4.03;;;;;;;;;;5049769;28;20120;-92
2022/05/27 10:14:21;;;;;;;15.45;4.13;;;;;;;;;;5030899;28;20057;-85
2022/05/27 10:17:08;;;;;;;18.40;4.00;;;;;;;;;;5029737;28;20096;-82
2022/05/27 10:19:34;;;;;;;11.48;3.75;;;;;;;;;;5028926;28;20111;-82
2022/05/27 10:22:03;;;;;;;12.80;3.75;;;;;;;;;;5028883;28;20446;-82
2022/05/27 10:24:31;;;;;;;11.52;3.67;;;;;;;;;;5044349;28;20056;-82
2022/05/27 10:27:05;;;;;;;14.00;3.63;;;;;;;;;;5048877;28;20102;-82
2022/05/27 10:29:33;;;;;;;13.75;3.97;;;;;;;;;;5049430;28;20045;-82
2022/05/27 10:32:01;;;;;;;16.77;4.28;;;;;;;;;;5048492;28;20037;-82
2022/05/27 10:34:42;;;;;;;13.82;4.13;;;;;;;;;;5036632;28;20130;-82
2022/05/27 10:37:23;;;;;;;14.90;3.95;;;;;;;;;;5048317;28;20052;-82
2022/05/27 10:40:08;;;;;;;13.80;4.10;;;;;;;;;;5044171;28;20136;-81
2022/05/27 10:42:40;;;;;;;17.15;4.43;;;;;;;;;;5050248;28;20044;-82
2022/05/27 10:45:06;;;;;;;10.07;4.20;;;;;;;;;;5048842;28;20072;-82
2022/05/27 10:47:35;;;;;;;13.07;3.95;;;;;;;;;;5034038;28;20077;-81
2022/05/27 10:50:01;;;;;;;13.10;3.72;;;;;;;;;;5029214;28;20057;-81
2022/05/27 10:52:29;;;;;;;13.18;4.00;;;;;;;;;;5029583;28;20049;-85
2022/05/27 10:55:01;;;;;;;11.20;4.32;;;;;;;;;;5041579;28;20041;-81
2022/05/27 11:03:23;;;;;;;14.63;4.22;;;;;;;;;;5048045;28;20056;-81
2022/05/27 11:06:03;;;;;;;13.63;4.00;;;;;;;;;;5028912;28;20053;-82
2022/05/27 11:08:30;;;;;;;18.20;4.30;;;;;;;;;;5046999;28;20120;-82
2022/05/27 11:11:06;;;;;;;15.15;4.32;;;;;;;;;;5044693;28;20609;-82
2022/05/27 11:16:40;;;;;;;13.02;4.20;;;;;;;;;;5031820;28;20521;-82
2022/05/27 11:19:15;;;;;;;16.73;4.35;;;;;;;;;;5031571;28;20402;-82
2022/05/27 11:21:51;;;;;;;16.08;4.00;;;;;;;;;;5040565;28;20102;-82
2022/05/27 11:24:30;;;;;;;17.63;4.50;;;;;;;;;;5048914;28;20132;-82
2022/05/27 11:27:14;;;;;;;14.05;3.75;;;;;;;;;;5052357;28;20451;-82
2022/05/27 11:29:58;;;;;;;12.95;4.13;;;;;;;;;;5052634;28;20045;-82
2022/05/27 11:32:39;;;;;;;14.73;3.75;;;;;;;;;;5051015;28;20099;-82
2022/05/27 11:35:17;;;;;;;13.90;3.75;;;;;;;;;;5031594;28;20172;-82
2022/05/27 11:37:50;;;;;;;13.75;4.45;;;;;;;;;;5035673;28;20050;-82
2022/05/27 11:40:19;;;;;;;14.90;4.10;;;;;;;;;;5032744;28;20532;-82
2022/05/27 11:42:59;;;;;;;16.92;4.43;;;;;;;;;;5033100;28;20124;-82
2022/05/27 11:45:30;;;;;;;16.88;4.45;;;;;;;;;;5040419;28;20056;-82
2022/05/27 11:47:56;;;;;;;14.32;4.22;;;;;;;;;;5047838;28;20098;-82
2022/05/27 11:50:25;;;;;;;16.40;4.25;;;;;;;;;;5052727;28;20056;-83
2022/05/27 11:52:51;;;;;;;13.85;4.30;;;;;;;;;;5053177;28;20041;-83
2022/05/27 11:55:26;;;;;;;15.07;3.88;;;;;;;;;;5031511;28;20501;-82
2022/05/27 11:58:11;;;;;;;15.02;4.22;;;;;;;;;;5034069;28;20121;-82
2022/05/27 12:00:40;;;;;;;14.88;4.45;;;;;;;;;;5032368;28;20505;-82
2022/05/27 12:03:25;;;;;;;16.27;4.10;;;;;;;;;;5032468;28;20049;-83
2022/05/27 12:05:56;;;;;;;13.93;3.60;;;;;;;;;;5036665;28;20049;-82
2022/05/27 12:08:32;;;;;;;16.17;4.72;;;;;;;;;;5045858;28;20463;-82
2022/05/27 12:11:02;;;;;;;13.83;3.87;;;;;;;;;;5031434;28;20058;-82
2022/05/27 12:13:31;;;;;;;14.77;4.15;;;;;;;;;;5034571;28;20820;-83
2022/05/27 12:16:09;;;;;;;10.65;3.95;;;;;;;;;;5048186;28;20528;-84
2022/05/27 12:18:38;;;;;;;16.65;4.03;;;;;;;;;;5054431;28;20552;-86
2022/05/27 12:21:07;;;;;;;14.68;4.10;;;;;;;;;;5048691;28;20041;-88
2022/05/27 12:23:34;;;;;;;16.65;4.70;;;;;;;;;;5040967;28;20049;-86
2022/05/27 12:26:01;;;;;;;13.50;3.75;;;;;;;;;;5070276;28;20102;-85
2022/05/27 12:28:29;;;;;;;16.20;4.50;;;;;;;;;;5064564;28;20477;-91
2022/05/27 12:30:56;;;;;;;13.05;3.70;;;;;;;;;;5046261;28;20094;-84
2022/05/27 12:33:24;;;;;;;13.43;4.22;;;;;;;;;;5051523;28;20490;-82
2022/05/27 12:35:49;;;;;;;15.45;4.15;;;;;;;;;;5046788;28;20041;-85
2022/05/27 12:38:17;;;;;;;16.17;4.05;;;;;;;;;;5033816;28;20037;-80
2022/05/27 12:40:49;;;;;;;17.33;4.35;;;;;;;;;;5044543;28;20040;-83
2022/05/27 12:43:21;;;;;;;17.85;4.60;;;;;;;;;;5040109;28;20045;-83
2022/05/27 12:45:49;;;;;;;13.23;4.25;;;;;;;;;;5042756;28;20096;-83
2022/05/27 12:48:25;;;;;;;13.25;3.95;;;;;;;;;;5047798;28;20080;-84
2022/05/27 12:50:54;;;;;;;13.57;5.18;;;;;;;;;;5052007;28;20048;-84
2022/05/27 12:53:23;;;;;;;14.65;4.57;;;;;;;;;;5052103;28;20125;-84
2022/05/27 13:01:43;;;;;;;16.02;4.47;;;;;;;;;;5044667;28;20045;-84
2022/05/27 13:04:29;;;;;;;13.43;4.45;;;;;;;;;;5046385;28;20522;-84
2022/05/27 13:07:05;;;;;;;17.40;4.43;;;;;;;;;;5046950;28;20037;-84
2022/05/27 13:09:42;;;;;;;14.25;3.75;;;;;;;;;;5050319;28;20080;-86
2022/05/27 13:12:10;;;;;;;13.23;4.13;;;;;;;;;;5039266;28;20179;-88
2022/05/27 13:14:40;;;;;;;16.00;3.67;;;;;;;;;;5050227;28;20409;-86
2022/05/27 13:17:12;;;;;;;13.95;3.65;;;;;;;;;;5050491;28;20045;-87
2022/05/27 13:19:43;;;;;;;13.23;3.85;;;;;;;;;;5051983;28;20517;-87
2022/05/27 13:22:09;;;;;;;11.93;4.00;;;;;;;;;;5049707;28;20058;-84
2022/05/27 13:24:36;;;;;;;18.63;4.40;;;;;;;;;;5060863;28;20330;-82
2022/05/27 13:27:21;;;;;;;15.38;4.30;;;;;;;;;;5069641;28;20049;-84
2022/05/27 13:29:53;;;;;;;16.85;3.85;;;;;;;;;;5062814;28;20048;-82
2022/05/27 13:32:24;;;;;;;14.50;4.28;;;;;;;;;;5050889;28;20098;-82
2022/05/27 13:35:23;;;;;;;10.23;3.72;;;;;;;;;;5057780;28;20143;-82
2022/05/27 13:37:55;;;;;;;12.45;3.97;;;;;;;;;;5047518;28;20056;-83
2022/05/27 13:40:27;;;;;;;12.95;3.72;;;;;;;;;;5052474;28;20389;-83
2022/05/27 13:43:00;;;;;;;12.73;3.95;;;;;;;;;;5070592;28;20048;-82
2022/05/27 13:45:31;;;;;;;10.73;3.45;;;;;;;;;;5066932;28;20615;-81
2022/05/27 13:48:01;;;;;;;14.25;3.95;;;;;;;;;;5069315;28;20056;-84
2022/05/27 13:50:31;;;;;;;12.43;3.83;;;;;;;;;;5066699;28;20052;-82
2022/05/27 13:52:58;;;;;;;12.68;3.50;;;;;;;;;;5061166;28;20059;-82
2022/05/27 13:55:26;;;;;;;11.40;3.58;;;;;;;;;;5050427;28;20535;-87
2022/05/27 13:57:52;;;;;;;12.02;3.72;;;;;;;;;;5049058;28;20135;-82
2022/05/27 14:00:19;;;;;;;14.25;3.72;;;;;;;;;;5046675;28;20044;-81
2022/05/27 14:02:47;;;;;;;14.50;3.78;;;;;;;;;;5047266;28;20047;-81
2022/05/27 14:05:21;;;;;;;14.52;3.67;;;;;;;;;;5049015;28;20394;-82
2022/05/27 14:07:50;;;;;;;13.23;3.80;;;;;;;;;;5030216;28;20049;-81
2022/05/27 14:10:22;;;;;;;10.88;3.60;;;;;;;;;;5045335;28;20052;-85
2022/05/27 14:12:49;;;;;;;14.48;3.80;;;;;;;;;;5048117;28;20059;-81
2022/05/27 14:15:17;;;;;;;10.98;3.50;;;;;;;;;;5057070;28;20055;-81
2022/05/27 14:17:45;;;;;;;16.83;4.25;;;;;;;;;;5049188;28;20045;-81
2022/05/27 14:20:12;;;;;;;16.23;4.32;;;;;;;;;;5049577;28;20091;-81
2022/05/27 14:22:46;;;;;;;13.90;4.25;;;;;;;;;;5047495;28;20053;-82
2022/05/27 14:25:22;;;;;;;13.07;3.95;;;;;;;;;;5055938;28;20432;-82
2022/05/27 14:28:08;;;;;;;13.05;3.90;;;;;;;;;;5049680;28;20449;-82
2022/05/27 14:30:35;;;;;;;14.75;4.32;;;;;;;;;;5048798;28;20183;-82
2022/05/27 14:33:02;;;;;;;14.98;4.07;;;;;;;;;;5031388;28;20142;-81
2022/05/27 14:35:29;;;;;;;14.77;3.90;;;;;;;;;;5048313;28;20047;-82
2022/05/27 14:37:58;;;;;;;15.20;4.18;;;;;;;;;;5048164;28;20052;-82
2022/05/27 14:40:33;;;;;;;15.77;3.80;;;;;;;;;;5048448;28;20490;-83
2022/05/27 14:43:00;;;;;;;16.93;4.17;;;;;;;;;;5053919;28;20419;-94
2022/05/27 14:45:34;;;;;;;15.70;4.55;;;;;;;;;;5051446;28;20082;-81
2022/05/27 14:48:00;;;;;;;20.90;4.57;;;;;;;;;;5048142;28;20133;-80
2022/05/27 14:50:33;;;;;;;11.27;3.95;;;;;;;;;;5048648;28;20521;-80
2022/05/27 14:53:04;;;;;;;12.73;3.47;;;;;;;;;;5047292;28;20103;-80
2022/05/27 14:55:35;;;;;;;14.43;3.33;;;;;;;;;;5051269;28;20087;-81
2022/05/27 14:58:03;;;;;;;11.88;3.65;;;;;;;;;;5066505;28;20098;-80
2022/05/27 15:00:31;;;;;;;16.98;3.50;;;;;;;;;;5069825;28;20135;-80
2022/05/27 15:03:17;;;;;;;13.02;3.70;;;;;;;;;;5051673;28;20509;-80
2022/05/27 15:05:43;;;;;;;13.50;3.90;;;;;;;;;;5069426;28;20094;-81
2022/05/27 15:08:18;;;;;;;9.63;3.30;;;;;;;;;;5055264;28;20076;-80
2022/05/27 15:11:02;;;;;;;12.37;3.53;;;;;;;;;;5049313;28;20124;-80
2022/05/27 15:13:30;;;;;;;14.65;3.60;;;;;;;;;;5057510;28;20128;-80
2022/05/27 15:15:58;;;;;;;12.73;3.63;;;;;;;;;;5067866;28;20566;-80
2022/05/27 15:18:26;;;;;;;18.05;4.20;;;;;;;;;;5069398;28;20505;-80
2022/05/27 15:20:59;;;;;;;10.80;3.80;;;;;;;;;;5068040;28;20036;-80
2022/05/27 15:23:29;;;;;;;13.05;4.00;;;;;;;;;;5068479;28;20048;-80